Lockport-Weather Station Historical Data
Daily Summary for September 21, 2020 Units:  Both    English   Metric
Daily Weekly Monthly Yearly Custom
  High: Low: Average:
Temperature: 68.7 °F /  20.4 °C 36.6 °F /  2.6 °C 50.6 °F /  10.3 °C
Dew Point: 45.5 °F /  7.5 °C 32.2 °F /  0.1 °C 37.1 °F /  2.8 °C
Humidity: 87% 35.2% 64%
Wind Speed: 4.2mph /  6.8km/h - 1.2mph /  1.9km/h
Wind Gust: 8mph /  12.9km/h - -
Wind- - ESE
Pressure: 30.61 in /  1036.5 hPa 30.46 in /  1031.4 hPa -
Precipitation: 0.00 in /  0 mm    
 
 
Tabular Data for September 21, 2020
Time Temperature Dew Point Pressure Wind Wind Speed Wind Gust Humidity Rainfall Rate (Hourly) solar
00:04 45.2 °F /  7.3 °C 36.2 °F /  2.3 °C 30.58in /  1035.4hPa ENE 1.1mph /  1.8km/h 2mph /  3.2km/h 70.5% 0.00in /  0mm W/m2
00:09 45.1 °F /  7.3 °C 35.9 °F /  2.2 °C 30.58in /  1035.4hPa ENE 0.7mph /  1.1km/h 2mph /  3.2km/h 70% 0.00in /  0mm W/m2
00:14 45 °F /  7.2 °C 36.1 °F /  2.3 °C 30.58in /  1035.4hPa ENE 0.6mph /  1km/h 2mph /  3.2km/h 70.8% 0.00in /  0mm W/m2
00:19 44.8 °F /  7.1 °C 36 °F /  2.2 °C 30.58in /  1035.4hPa ENE 1mph /  1.6km/h 2mph /  3.2km/h 71.1% 0.00in /  0mm W/m2
00:24 44.7 °F /  7.1 °C 36.1 °F /  2.3 °C 30.58in /  1035.4hPa ENE 1.1mph /  1.8km/h 2mph /  3.2km/h 71.4% 0.00in /  0mm W/m2
00:29 44.7 °F /  7.1 °C 36.1 °F /  2.3 °C 30.58in /  1035.4hPa ENE 1mph /  1.6km/h 2mph /  3.2km/h 71.6% 0.00in /  0mm W/m2
00:34 44.4 °F /  6.9 °C 36.2 °F /  2.3 °C 30.58in /  1035.4hPa ENE 1.2mph /  1.9km/h 2mph /  3.2km/h 72.9% 0.00in /  0mm W/m2
00:39 43.9 °F /  6.6 °C 36.2 °F /  2.3 °C 30.58in /  1035.4hPa ENE 1.5mph /  2.4km/h 3mph /  4.8km/h 74.3% 0.00in /  0mm W/m2
00:44 43.9 °F /  6.6 °C 36.1 °F /  2.3 °C 30.58in /  1035.4hPa ENE 1.2mph /  1.9km/h 3mph /  4.8km/h 73.7% 0.00in /  0mm W/m2
00:49 44.2 °F /  6.8 °C 36.1 °F /  2.3 °C 30.58in /  1035.4hPa ENE 1.5mph /  2.4km/h 3mph /  4.8km/h 73.2% 0.00in /  0mm W/m2
00:54 44.3 °F /  6.8 °C 36.1 °F /  2.3 °C 30.58in /  1035.4hPa ENE 1.3mph /  2.1km/h 3mph /  4.8km/h 72.8% 0.00in /  0mm W/m2
00:59 44.3 °F /  6.8 °C 36.2 °F /  2.3 °C 30.58in /  1035.4hPa ENE 1.4mph /  2.3km/h 3mph /  4.8km/h 72.9% 0.00in /  0mm W/m2
01:04 44.2 °F /  6.8 °C 35.8 °F /  2.1 °C 30.58in /  1035.4hPa ENE 1.2mph /  1.9km/h 2mph /  3.2km/h 72.3% 0.00in /  0mm W/m2
01:09 44.1 °F /  6.7 °C 36 °F /  2.2 °C 30.58in /  1035.4hPa ENE 1.1mph /  1.8km/h 2mph /  3.2km/h 72.9% 0.00in /  0mm W/m2
01:14 43.8 °F /  6.6 °C 36.1 °F /  2.3 °C 30.58in /  1035.4hPa ENE 0.8mph /  1.3km/h 2mph /  3.2km/h 74.2% 0.00in /  0mm W/m2
01:19 43.1 °F /  6.2 °C 35.9 °F /  2.2 °C 30.58in /  1035.4hPa ENE 0.9mph /  1.4km/h 2mph /  3.2km/h 75.3% 0.00in /  0mm W/m2
01:24 42.7 °F /  5.9 °C 35.9 °F /  2.2 °C 30.58in /  1035.4hPa ENE 1.1mph /  1.8km/h 2mph /  3.2km/h 76.4% 0.00in /  0mm W/m2
01:29 42.9 °F /  6.1 °C 36 °F /  2.2 °C 30.58in /  1035.4hPa ENE 1.4mph /  2.3km/h 2mph /  3.2km/h 76.6% 0.00in /  0mm W/m2
01:34 43.3 °F /  6.3 °C 36 °F /  2.2 °C 30.58in /  1035.4hPa ENE 1.4mph /  2.3km/h 2mph /  3.2km/h 75.4% 0.00in /  0mm W/m2
01:39 43.5 °F /  6.4 °C 36 °F /  2.2 °C 30.58in /  1035.4hPa ENE 1.1mph /  1.8km/h 2mph /  3.2km/h 74.6% 0.00in /  0mm W/m2
01:44 43.5 °F /  6.4 °C 35.8 °F /  2.1 °C 30.58in /  1035.4hPa ENE 0.5mph /  0.8km/h 2mph /  3.2km/h 74.2% 0.00in /  0mm W/m2
01:49 43.1 °F /  6.2 °C 35.7 °F /  2.1 °C 30.58in /  1035.4hPa ENE 0.7mph /  1.1km/h 2mph /  3.2km/h 75% 0.00in /  0mm W/m2
01:54 42.6 °F /  5.9 °C 35.6 °F /  2 °C 30.58in /  1035.4hPa ENE 0.1mph /  0.2km/h 2mph /  3.2km/h 75.8% 0.00in /  0mm W/m2
01:59 42.3 °F /  5.7 °C 35.6 °F /  2 °C 30.58in /  1035.4hPa ENE 0.4mph /  0.6km/h 1mph /  1.6km/h 76.8% 0.00in /  0mm W/m2
02:04 42 °F /  5.6 °C 35.4 °F /  1.9 °C 30.58in /  1035.4hPa ENE 0.4mph /  0.6km/h 1mph /  1.6km/h 77.2% 0.00in /  0mm W/m2
02:09 41.8 °F /  5.4 °C 35.3 °F /  1.8 °C 30.58in /  1035.4hPa ENE 1mph /  1.6km/h 2mph /  3.2km/h 77.6% 0.00in /  0mm W/m2
02:14 41.7 °F /  5.4 °C 35.6 °F /  2 °C 30.58in /  1035.4hPa ENE 0.4mph /  0.6km/h 2mph /  3.2km/h 78.7% 0.00in /  0mm W/m2
02:19 41.7 °F /  5.4 °C 35.7 °F /  2.1 °C 30.57in /  1035.1hPa ENE 0.7mph /  1.1km/h 2mph /  3.2km/h 79% 0.00in /  0mm W/m2
02:24 41.8 °F /  5.4 °C 35.8 °F /  2.1 °C 30.57in /  1035.1hPa ENE 0.3mph /  0.5km/h 2mph /  3.2km/h 79% 0.00in /  0mm W/m2
02:29 41.8 °F /  5.4 °C 35.8 °F /  2.1 °C 30.57in /  1035.1hPa ENE 0.6mph /  1km/h 2mph /  3.2km/h 79% 0.00in /  0mm W/m2
02:34 41.7 °F /  5.4 °C 35.7 °F /  2.1 °C 30.57in /  1035.1hPa ENE 0.6mph /  1km/h 2mph /  3.2km/h 79% 0.00in /  0mm W/m2
02:39 41.7 °F /  5.4 °C 35.7 °F /  2.1 °C 30.57in /  1035.1hPa ENE 0.5mph /  0.8km/h 2mph /  3.2km/h 79% 0.00in /  0mm W/m2
02:44 41.6 °F /  5.3 °C 35.6 °F /  2 °C 30.57in /  1035.1hPa ENE 0.7mph /  1.1km/h 2mph /  3.2km/h 79% 0.00in /  0mm W/m2
02:49 41.3 °F /  5.2 °C 35.3 °F /  1.8 °C 30.57in /  1035.1hPa ENE 1.1mph /  1.8km/h 2mph /  3.2km/h 79% 0.00in /  0mm W/m2
02:54 41 °F /  5 °C 35.3 °F /  1.8 °C 30.57in /  1035.1hPa ENE 0.8mph /  1.3km/h 2mph /  3.2km/h 80% 0.00in /  0mm W/m2
02:59 40.7 °F /  4.8 °C 35 °F /  1.7 °C 30.57in /  1035.1hPa ENE 0.8mph /  1.3km/h 2mph /  3.2km/h 80% 0.00in /  0mm W/m2
03:04 40.4 °F /  4.7 °C 34.8 °F /  1.6 °C 30.57in /  1035.1hPa ENE 1mph /  1.6km/h 2mph /  3.2km/h 80.6% 0.00in /  0mm W/m2
03:09 40 °F /  4.4 °C 34.6 °F /  1.4 °C 30.57in /  1035.1hPa ENE 0.9mph /  1.4km/h 2mph /  3.2km/h 81% 0.00in /  0mm W/m2
03:14 39.8 °F /  4.3 °C 34.6 °F /  1.4 °C 30.57in /  1035.1hPa ENE 0.9mph /  1.4km/h 2mph /  3.2km/h 81.4% 0.00in /  0mm W/m2
03:19 39.7 °F /  4.3 °C 34.7 °F /  1.5 °C 30.57in /  1035.1hPa ENE 0.8mph /  1.3km/h 2mph /  3.2km/h 82% 0.00in /  0mm W/m2
03:24 39.6 °F /  4.2 °C 34.6 °F /  1.4 °C 30.57in /  1035.1hPa ENE 0.4mph /  0.6km/h 2mph /  3.2km/h 82% 0.00in /  0mm W/m2
03:29 39.5 °F /  4.2 °C 34.5 °F /  1.4 °C 30.56in /  1034.8hPa ENE 0.5mph /  0.8km/h 1mph /  1.6km/h 82% 0.00in /  0mm W/m2
03:34 39.5 °F /  4.2 °C 34.8 °F /  1.6 °C 30.56in /  1034.8hPa ENE 1.2mph /  1.9km/h 2mph /  3.2km/h 83% 0.00in /  0mm W/m2
03:39 39.5 °F /  4.2 °C 34.8 °F /  1.6 °C 30.57in /  1035.1hPa ENE 1mph /  1.6km/h 2mph /  3.2km/h 83% 0.00in /  0mm W/m2
03:44 39.5 °F /  4.2 °C 34.8 °F /  1.6 °C 30.56in /  1034.8hPa ENE 0.9mph /  1.4km/h 2mph /  3.2km/h 83% 0.00in /  0mm W/m2
03:49 39.5 °F /  4.2 °C 34.8 °F /  1.6 °C 30.57in /  1035.1hPa ENE 1mph /  1.6km/h 2mph /  3.2km/h 83% 0.00in /  0mm W/m2
03:54 39.5 °F /  4.2 °C 34.8 °F /  1.6 °C 30.57in /  1035.1hPa ENE 0.9mph /  1.4km/h 2mph /  3.2km/h 83% 0.00in /  0mm W/m2
03:59 39.4 °F /  4.1 °C 34.7 °F /  1.5 °C 30.57in /  1035.1hPa ENE 0.8mph /  1.3km/h 2mph /  3.2km/h 83% 0.00in /  0mm W/m2
04:04 39.4 °F /  4.1 °C 34.7 °F /  1.5 °C 30.57in /  1035.1hPa ENE 0.4mph /  0.6km/h 2mph /  3.2km/h 83% 0.00in /  0mm W/m2
04:09 39.4 °F /  4.1 °C 34.7 °F /  1.5 °C 30.57in /  1035.1hPa Calm   1mph /  1.6km/h 83% 0.00in /  0mm W/m2
04:14 39.4 °F /  4.1 °C 34.4 °F /  1.3 °C 30.57in /  1035.1hPa ENE 0.1mph /  0.2km/h 1mph /  1.6km/h 82.2% 0.00in /  0mm W/m2
04:19 39.3 °F /  4.1 °C 34.3 °F /  1.3 °C 30.57in /  1035.1hPa Calm   1mph /  1.6km/h 82% 0.00in /  0mm W/m2
04:24 39.3 °F /  4.1 °C 34.3 °F /  1.3 °C 30.57in /  1035.1hPa Calm   1mph /  1.6km/h 82% 0.00in /  0mm W/m2
04:29 39.3 °F /  4.1 °C 34.3 °F /  1.3 °C 30.57in /  1035.1hPa Calm     82% 0.00in /  0mm W/m2
04:34 39.3 °F /  4.1 °C 34.3 °F /  1.3 °C 30.57in /  1035.1hPa Calm     82% 0.00in /  0mm W/m2
04:39 39.2 °F /  4 °C 34.2 °F /  1.2 °C 30.57in /  1035.1hPa Calm     82% 0.00in /  0mm W/m2
04:44 39.1 °F /  3.9 °C 34.1 °F /  1.2 °C 30.57in /  1035.1hPa Calm     82% 0.00in /  0mm W/m2
04:49 39.1 °F /  3.9 °C 34.1 °F /  1.2 °C 30.57in /  1035.1hPa Calm     82% 0.00in /  0mm W/m2
04:54 39 °F /  3.9 °C 34 °F /  1.1 °C 30.57in /  1035.1hPa Calm     82% 0.00in /  0mm W/m2
04:59 38.9 °F /  3.8 °C 33.9 °F /  1.1 °C 30.57in /  1035.1hPa Calm     82% 0.00in /  0mm W/m2
05:04 38.9 °F /  3.8 °C 33.9 °F /  1.1 °C 30.57in /  1035.1hPa Calm     82% 0.00in /  0mm W/m2
05:09 38.8 °F /  3.8 °C 33.8 °F /  1 °C 30.57in /  1035.1hPa Calm     82% 0.00in /  0mm W/m2
05:14 38.8 °F /  3.8 °C 33.8 °F /  1 °C 30.57in /  1035.1hPa Calm     82% 0.00in /  0mm W/m2
05:19 38.7 °F /  3.7 °C 33.7 °F /  0.9 °C 30.58in /  1035.4hPa Calm     82% 0.00in /  0mm W/m2
05:24 38.6 °F /  3.7 °C 33.6 °F /  0.9 °C 30.58in /  1035.4hPa Calm     82% 0.00in /  0mm W/m2
05:29 38.5 °F /  3.6 °C 33.5 °F /  0.8 °C 30.58in /  1035.4hPa Calm     82% 0.00in /  0mm W/m2
05:34 38.4 °F /  3.6 °C 33.4 °F /  0.8 °C 30.57in /  1035.1hPa Calm     82% 0.00in /  0mm W/m2
05:39 38.3 °F /  3.5 °C 33.3 °F /  0.7 °C 30.57in /  1035.1hPa Calm     82% 0.00in /  0mm W/m2
05:44 38.2 °F /  3.4 °C 33.2 °F /  0.7 °C 30.58in /  1035.4hPa Calm     82% 0.00in /  0mm W/m2
05:49 38.1 °F /  3.4 °C 33.1 °F /  0.6 °C 30.58in /  1035.4hPa Calm     82% 0.00in /  0mm W/m2
05:54 38 °F /  3.3 °C 33 °F /  0.6 °C 30.58in /  1035.4hPa Calm     82% 0.00in /  0mm W/m2
05:59 38 °F /  3.3 °C 33.2 °F /  0.7 °C 30.58in /  1035.4hPa Calm     82.9% 0.00in /  0mm W/m2
06:04 37.9 °F /  3.3 °C 33.2 °F /  0.7 °C 30.58in /  1035.4hPa Calm     83% 0.00in /  0mm W/m2
06:09 37.8 °F /  3.2 °C 33.1 °F /  0.6 °C 30.58in /  1035.4hPa Calm     83% 0.00in /  0mm W/m2
06:14 37.7 °F /  3.2 °C 33 °F /  0.6 °C 30.58in /  1035.4hPa Calm     83% 0.00in /  0mm W/m2
06:19 37.7 °F /  3.2 °C 33.3 °F /  0.7 °C 30.58in /  1035.4hPa Calm     84% 0.00in /  0mm W/m2
06:24 37.6 °F /  3.1 °C 33.2 °F /  0.7 °C 30.58in /  1035.4hPa Calm     84% 0.00in /  0mm W/m2
06:29 37.5 °F /  3.1 °C 33 °F /  0.6 °C 30.58in /  1035.4hPa Calm     83.7% 0.00in /  0mm W/m2
06:34 37.4 °F /  3 °C 32.7 °F /  0.4 °C 30.58in /  1035.4hPa Calm     83% 0.00in /  0mm W/m2
06:39 37.3 °F /  2.9 °C 32.6 °F /  0.3 °C 30.58in /  1035.4hPa Calm     83% 0.00in /  0mm W/m2
06:44 37.2 °F /  2.9 °C 32.5 °F /  0.3 °C 30.58in /  1035.4hPa Calm     83% 0.00in /  0mm W/m2
06:49 37.1 °F /  2.8 °C 32.4 °F /  0.2 °C 30.58in /  1035.4hPa Calm     83% 0.00in /  0mm W/m2
06:54 37 °F /  2.8 °C 32.3 °F /  0.2 °C 30.58in /  1035.4hPa Calm     83% 0.00in /  0mm W/m2
06:59 36.9 °F /  2.7 °C 32.5 °F /  0.3 °C 30.58in /  1035.4hPa Calm     83.8% 0.00in /  0mm W/m2
07:04 36.8 °F /  2.7 °C 32.4 °F /  0.2 °C 30.59in /  1035.8hPa Calm     84% 0.00in /  0mm W/m2
07:09 36.8 °F /  2.7 °C 32.2 °F /  0.1 °C 30.59in /  1035.8hPa Calm     83.4% 0.00in /  0mm W/m2
07:14 36.7 °F /  2.6 °C 32.2 °F /  0.1 °C 30.59in /  1035.8hPa Calm     83.6% 0.00in /  0mm W/m2
07:19 36.7 °F /  2.6 °C 32.3 °F /  0.2 °C 30.59in /  1035.8hPa Calm     84% 0.00in /  0mm W/m2
07:24 36.6 °F /  2.6 °C 32.2 °F /  0.1 °C 30.59in /  1035.8hPa Calm     84% 0.00in /  0mm W/m2
07:29 36.6 °F /  2.6 °C 32.2 °F /  0.1 °C 30.59in /  1035.8hPa Calm     84% 0.00in /  0mm W/m2
07:34 36.6 °F /  2.6 °C 32.2 °F /  0.1 °C 30.59in /  1035.8hPa Calm     84% 0.00in /  0mm W/m2
07:39 36.7 °F /  2.6 °C 32.5 °F /  0.3 °C 30.59in /  1035.8hPa Calm     84.8% 0.00in /  0mm W/m2
07:44 36.7 °F /  2.6 °C 32.6 °F /  0.3 °C 30.59in /  1035.8hPa Calm     85% 0.00in /  0mm W/m2
07:49 36.9 °F /  2.7 °C 32.8 °F /  0.4 °C 30.59in /  1035.8hPa Calm     85% 0.00in /  0mm W/m2
07:54 37 °F /  2.8 °C 33.1 °F /  0.6 °C 30.59in /  1035.8hPa Calm     85.5% 0.00in /  0mm W/m2
07:59 37.3 °F /  2.9 °C 33.5 °F /  0.8 °C 30.60in /  1036.1hPa ENE 0.6mph /  1km/h 2mph /  3.2km/h 86% 0.00in /  0mm W/m2
08:04 37.5 °F /  3.1 °C 33.8 °F /  1 °C 30.60in /  1036.1hPa ENE 0.6mph /  1km/h 2mph /  3.2km/h 86.2% 0.00in /  0mm W/m2
08:09 37.8 °F /  3.2 °C 34.3 °F /  1.3 °C 30.59in /  1035.8hPa East 0.9mph /  1.4km/h 2mph /  3.2km/h 87% 0.00in /  0mm W/m2
08:14 38.1 °F /  3.4 °C 34.6 °F /  1.4 °C 30.59in /  1035.8hPa SSE 0.9mph /  1.4km/h 2mph /  3.2km/h 87% 0.00in /  0mm W/m2
08:19 38.5 °F /  3.6 °C 35 °F /  1.7 °C 30.59in /  1035.8hPa SSE 1.6mph /  2.6km/h 4mph /  6.4km/h 87% 0.00in /  0mm W/m2
08:24 39.1 °F /  3.9 °C 35.5 °F /  1.9 °C 30.59in /  1035.8hPa South 2mph /  3.2km/h 5mph /  8km/h 86.8% 0.00in /  0mm W/m2
08:29 39.7 °F /  4.3 °C 35.8 °F /  2.1 °C 30.59in /  1035.8hPa South 2mph /  3.2km/h 5mph /  8km/h 85.8% 0.00in /  0mm W/m2
08:34 40.2 °F /  4.6 °C 36.1 °F /  2.3 °C 30.60in /  1036.1hPa South 1.7mph /  2.7km/h 6mph /  9.7km/h 85% 0.00in /  0mm W/m2
08:39 40.8 °F /  4.9 °C 36.3 °F /  2.4 °C 30.60in /  1036.1hPa South 1.9mph /  3.1km/h 6mph /  9.7km/h 83.8% 0.00in /  0mm W/m2
08:44 41.5 °F /  5.3 °C 36.6 °F /  2.6 °C 30.60in /  1036.1hPa SSE 2.3mph /  3.7km/h 6mph /  9.7km/h 82.5% 0.00in /  0mm W/m2
08:49 42.3 °F /  5.7 °C 36.7 °F /  2.6 °C 30.60in /  1036.1hPa SSE 1.9mph /  3.1km/h 5mph /  8km/h 80.4% 0.00in /  0mm W/m2
08:54 43 °F /  6.1 °C 36.8 °F /  2.7 °C 30.60in /  1036.1hPa South 2.4mph /  3.9km/h 5mph /  8km/h 78.4% 0.00in /  0mm W/m2
08:59 43.7 °F /  6.5 °C 36.8 °F /  2.7 °C 30.60in /  1036.1hPa SSE 2.3mph /  3.7km/h 5mph /  8km/h 76.4% 0.00in /  0mm W/m2
09:04 44.6 °F /  7 °C 36.9 °F /  2.7 °C 30.60in /  1036.1hPa South 2.4mph /  3.9km/h 5mph /  8km/h 74.3% 0.00in /  0mm W/m2
09:09 47.1 °F /  8.4 °C 37.7 °F /  3.2 °C 30.60in /  1036.1hPa South 2.2mph /  3.5km/h 5mph /  8km/h 69.8% 0.00in /  0mm W/m2
09:14 48.5 °F /  9.2 °C 37.8 °F /  3.2 °C 30.60in /  1036.1hPa South 1.6mph /  2.6km/h 5mph /  8km/h 66.5% 0.00in /  0mm W/m2
09:19 49.3 °F /  9.6 °C 37.8 °F /  3.2 °C 30.60in /  1036.1hPa SSE 2.4mph /  3.9km/h 5mph /  8km/h 64.6% 0.00in /  0mm W/m2
09:24 49.9 °F /  9.9 °C 38.1 °F /  3.4 °C 30.60in /  1036.1hPa SSW 1.4mph /  2.3km/h 5mph /  8km/h 63.7% 0.00in /  0mm W/m2
09:29 50.5 °F /  10.3 °C 38.4 °F /  3.6 °C 30.60in /  1036.1hPa South 2.1mph /  3.4km/h 5mph /  8km/h 63.1% 0.00in /  0mm W/m2
09:34 51.1 °F /  10.6 °C 38.1 °F /  3.4 °C 30.61in /  1036.5hPa SSE 2.4mph /  3.9km/h 5mph /  8km/h 61.1% 0.00in /  0mm W/m2
09:39 51.6 °F /  10.9 °C 38.3 °F /  3.5 °C 30.61in /  1036.5hPa SSE 1.9mph /  3.1km/h 5mph /  8km/h 60.4% 0.00in /  0mm W/m2
09:44 52.2 °F /  11.2 °C 39 °F /  3.9 °C 30.61in /  1036.5hPa SSE 1.4mph /  2.3km/h 5mph /  8km/h 60.7% 0.00in /  0mm W/m2
09:49 52.8 °F /  11.6 °C 39.4 °F /  4.1 °C 30.61in /  1036.5hPa South 1.5mph /  2.4km/h 4mph /  6.4km/h 60.3% 0.00in /  0mm W/m2
09:54 53.4 °F /  11.9 °C 39.2 °F /  4 °C 30.61in /  1036.5hPa South 2mph /  3.2km/h 5mph /  8km/h 58.5% 0.00in /  0mm W/m2
09:59 54.1 °F /  12.3 °C 40 °F /  4.4 °C 30.61in /  1036.5hPa SSE 1.5mph /  2.4km/h 5mph /  8km/h 58.7% 0.00in /  0mm W/m2
10:04 54.5 °F /  12.5 °C 39.8 °F /  4.3 °C 30.61in /  1036.5hPa SSE 2.2mph /  3.5km/h 5mph /  8km/h 57.5% 0.00in /  0mm W/m2
10:09 55.1 °F /  12.8 °C 40 °F /  4.4 °C 30.61in /  1036.5hPa South 2.4mph /  3.9km/h 6mph /  9.7km/h 56.8% 0.00in /  0mm W/m2
10:14 55.7 °F /  13.2 °C 40.5 °F /  4.7 °C 30.61in /  1036.5hPa SSW 1.7mph /  2.7km/h 6mph /  9.7km/h 56.6% 0.00in /  0mm W/m2
10:19 56.3 °F /  13.5 °C 41 °F /  5 °C 30.61in /  1036.5hPa SSE 2.5mph /  4km/h 6mph /  9.7km/h 56.5% 0.00in /  0mm W/m2
10:24 57.2 °F /  14 °C 41.3 °F /  5.2 °C 30.61in /  1036.5hPa SSE 1.7mph /  2.7km/h 5mph /  8km/h 55.2% 0.00in /  0mm W/m2
10:29 57.8 °F /  14.3 °C 40.8 °F /  4.9 °C 30.61in /  1036.5hPa South 1.8mph /  2.9km/h 6mph /  9.7km/h 53.1% 0.00in /  0mm W/m2
10:34 58.3 °F /  14.6 °C 40.8 °F /  4.9 °C 30.61in /  1036.5hPa SSE 2.1mph /  3.4km/h 6mph /  9.7km/h 52.1% 0.00in /  0mm W/m2
10:39 58.9 °F /  14.9 °C 40.5 °F /  4.7 °C 30.61in /  1036.5hPa SSE 3.1mph /  5km/h 7mph /  11.3km/h 50.4% 0.00in /  0mm W/m2
10:44 59.2 °F /  15.1 °C 39.7 °F /  4.3 °C 30.61in /  1036.5hPa SSE 2.4mph /  3.9km/h 7mph /  11.3km/h 48.5% 0.00in /  0mm W/m2
10:49 59.8 °F /  15.4 °C 40.1 °F /  4.5 °C 30.61in /  1036.5hPa SSW 2.5mph /  4km/h 7mph /  11.3km/h 48.2% 0.00in /  0mm W/m2
10:54 60.1 °F /  15.6 °C 39.9 °F /  4.4 °C 30.61in /  1036.5hPa SSE 2.3mph /  3.7km/h 5mph /  8km/h 47.2% 0.00in /  0mm W/m2
10:59 60.8 °F /  16 °C 40.8 °F /  4.9 °C 30.61in /  1036.5hPa South 1.6mph /  2.6km/h 5mph /  8km/h 47.7% 0.00in /  0mm W/m2
11:04 61.7 °F /  16.5 °C 41.6 °F /  5.3 °C 30.61in /  1036.5hPa SSE 1.9mph /  3.1km/h 5mph /  8km/h 47.6% 0.00in /  0mm W/m2
11:14 61.9 °F /  16.6 °C 40.5 °F /  4.7 °C 30.60in /  1036.1hPa SSW 1.7mph /  2.7km/h 5mph /  8km/h 45.3% 0.00in /  0mm W/m2
11:19 62.4 °F /  16.9 °C 41.8 °F /  5.4 °C 30.60in /  1036.1hPa SW 1.5mph /  2.4km/h 4mph /  6.4km/h 46.8% 0.00in /  0mm W/m2
11:24 62.9 °F /  17.2 °C 41 °F /  5 °C 30.60in /  1036.1hPa WSW 2mph /  3.2km/h 5mph /  8km/h 44.7% 0.00in /  0mm W/m2
11:29 63.4 °F /  17.4 °C 40.8 °F /  4.9 °C 30.60in /  1036.1hPa SSE 1.8mph /  2.9km/h 5mph /  8km/h 43.5% 0.00in /  0mm W/m2
11:34 62.7 °F /  17.1 °C 39.8 °F /  4.3 °C 30.60in /  1036.1hPa SE 2mph /  3.2km/h 5mph /  8km/h 42.8% 0.00in /  0mm W/m2
11:39 62.7 °F /  17.1 °C 40.5 °F /  4.7 °C 30.60in /  1036.1hPa SSE 0.6mph /  1km/h 4mph /  6.4km/h 44.1% 0.00in /  0mm W/m2
11:44 63.3 °F /  17.4 °C 40.4 °F /  4.7 °C 30.60in /  1036.1hPa SSE 1.3mph /  2.1km/h 5mph /  8km/h 43% 0.00in /  0mm W/m2
11:49 64 °F /  17.8 °C 38.5 °F /  3.6 °C 30.60in /  1036.1hPa SSE 1.8mph /  2.9km/h 5mph /  8km/h 39.1% 0.00in /  0mm W/m2
11:54 64.1 °F /  17.8 °C 39 °F /  3.9 °C 30.59in /  1035.8hPa SSE 1.5mph /  2.4km/h 5mph /  8km/h 39.7% 0.00in /  0mm W/m2
11:59 63.7 °F /  17.6 °C 36.9 °F /  2.7 °C 30.59in /  1035.8hPa SSE 1.9mph /  3.1km/h 4mph /  6.4km/h 37% 0.00in /  0mm W/m2
12:04 63.3 °F /  17.4 °C 36.8 °F /  2.7 °C 30.59in /  1035.8hPa South 1.1mph /  1.8km/h 4mph /  6.4km/h 37.3% 0.00in /  0mm W/m2
12:09 63.3 °F /  17.4 °C 38.4 °F /  3.6 °C 30.59in /  1035.8hPa South 0.8mph /  1.3km/h 4mph /  6.4km/h 39.8% 0.00in /  0mm W/m2
12:14 63.8 °F /  17.7 °C 39.2 °F /  4 °C 30.59in /  1035.8hPa South 1.3mph /  2.1km/h 3mph /  4.8km/h 40.4% 0.00in /  0mm W/m2
12:19 64.6 °F /  18.1 °C 40.1 °F /  4.5 °C 30.59in /  1035.8hPa SE 1.7mph /  2.7km/h 5mph /  8km/h 40.7% 0.00in /  0mm W/m2
12:24 64.1 °F /  17.8 °C 37.8 °F /  3.2 °C 30.58in /  1035.4hPa SSE 2.1mph /  3.4km/h 7mph /  11.3km/h 37.8% 0.00in /  0mm W/m2
12:29 63.8 °F /  17.7 °C 37.6 °F /  3.1 °C 30.58in /  1035.4hPa SSW 1.9mph /  3.1km/h 7mph /  11.3km/h 37.9% 0.00in /  0mm W/m2
12:34 63.9 °F /  17.7 °C 37.2 °F /  2.9 °C 30.58in /  1035.4hPa South 2.2mph /  3.5km/h 7mph /  11.3km/h 37.2% 0.00in /  0mm W/m2
12:39 63.2 °F /  17.3 °C 36.1 °F /  2.3 °C 30.58in /  1035.4hPa South 2mph /  3.2km/h 6mph /  9.7km/h 36.5% 0.00in /  0mm W/m2
12:44 63.2 °F /  17.3 °C 36.9 °F /  2.7 °C 30.57in /  1035.1hPa SW 1.4mph /  2.3km/h 4mph /  6.4km/h 37.7% 0.00in /  0mm W/m2
12:49 62.9 °F /  17.2 °C 36.7 °F /  2.6 °C 30.57in /  1035.1hPa SW 0.5mph /  0.8km/h 3mph /  4.8km/h 37.7% 0.00in /  0mm W/m2
12:54 63.1 °F /  17.3 °C 37.4 °F /  3 °C 30.57in /  1035.1hPa SW 2.2mph /  3.5km/h 5mph /  8km/h 38.5% 0.00in /  0mm W/m2
12:59 63.6 °F /  17.6 °C 37 °F /  2.8 °C 30.57in /  1035.1hPa SSW 2.4mph /  3.9km/h 6mph /  9.7km/h 37.3% 0.00in /  0mm W/m2
13:04 63.4 °F /  17.4 °C 38.8 °F /  3.8 °C 30.56in /  1034.8hPa SSW 0.7mph /  1.1km/h 6mph /  9.7km/h 40.4% 0.00in /  0mm W/m2
13:09 63.8 °F /  17.7 °C 37.3 °F /  2.9 °C 30.56in /  1034.8hPa SSW 2.2mph /  3.5km/h 6mph /  9.7km/h 37.5% 0.00in /  0mm W/m2
13:14 63.8 °F /  17.7 °C 38.6 °F /  3.7 °C 30.56in /  1034.8hPa SE 1.6mph /  2.6km/h 5mph /  8km/h 39.3% 0.00in /  0mm W/m2
13:19 64.1 °F /  17.8 °C 39.2 °F /  4 °C 30.56in /  1034.8hPa ENE 2.3mph /  3.7km/h 5mph /  8km/h 39.8% 0.00in /  0mm W/m2
13:24 63.8 °F /  17.7 °C 37.6 °F /  3.1 °C 30.56in /  1034.8hPa ENE 1mph /  1.6km/h 5mph /  8km/h 37.9% 0.00in /  0mm W/m2
13:29 64 °F /  17.8 °C 37.9 °F /  3.3 °C 30.56in /  1034.8hPa SE 1.3mph /  2.1km/h 5mph /  8km/h 38% 0.00in /  0mm W/m2
13:34 64.4 °F /  18 °C 39.1 °F /  3.9 °C 30.55in /  1034.4hPa East 1.8mph /  2.9km/h 4mph /  6.4km/h 39.2% 0.00in /  0mm W/m2
13:39 64.6 °F /  18.1 °C 39.9 °F /  4.4 °C 30.55in /  1034.4hPa NNE 1.1mph /  1.8km/h 4mph /  6.4km/h 40.3% 0.00in /  0mm W/m2
13:44 64.8 °F /  18.2 °C 40.5 °F /  4.7 °C 30.55in /  1034.4hPa NE 2mph /  3.2km/h 4mph /  6.4km/h 40.8% 0.00in /  0mm W/m2
13:49 65.2 °F /  18.4 °C 40.3 °F /  4.6 °C 30.55in /  1034.4hPa ENE 1.6mph /  2.6km/h 4mph /  6.4km/h 40.1% 0.00in /  0mm W/m2
13:54 65.2 °F /  18.4 °C 39.4 °F /  4.1 °C 30.54in /  1034.1hPa ENE 1.7mph /  2.7km/h 4mph /  6.4km/h 38.8% 0.00in /  0mm W/m2
13:59 65.2 °F /  18.4 °C 39.2 °F /  4 °C 30.54in /  1034.1hPa SSE 1.6mph /  2.6km/h 5mph /  8km/h 38.4% 0.00in /  0mm W/m2
14:04 65.1 °F /  18.4 °C 38.7 °F /  3.7 °C 30.54in /  1034.1hPa South 1.7mph /  2.7km/h 5mph /  8km/h 37.8% 0.00in /  0mm W/m2
14:09 65.1 °F /  18.4 °C 38.9 °F /  3.8 °C 30.53in /  1033.7hPa SE 2.2mph /  3.5km/h 6mph /  9.7km/h 38% 0.00in /  0mm W/m2
14:14 65 °F /  18.3 °C 38.6 °F /  3.7 °C 30.53in /  1033.7hPa SE 1.9mph /  3.1km/h 6mph /  9.7km/h 37.8% 0.00in /  0mm W/m2
14:19 65.4 °F /  18.6 °C 38.4 °F /  3.6 °C 30.53in /  1033.7hPa South 2.3mph /  3.7km/h 6mph /  9.7km/h 37% 0.00in /  0mm W/m2
14:24 65.4 °F /  18.6 °C 39.7 °F /  4.3 °C 30.52in /  1033.4hPa SE 2.2mph /  3.5km/h 6mph /  9.7km/h 39% 0.00in /  0mm W/m2
14:29 65.1 °F /  18.4 °C 39 °F /  3.9 °C 30.52in /  1033.4hPa East 1.6mph /  2.6km/h 5mph /  8km/h 38.3% 0.00in /  0mm W/m2
14:34 64.9 °F /  18.3 °C 38.6 °F /  3.7 °C 30.52in /  1033.4hPa NE 2.2mph /  3.5km/h 5mph /  8km/h 38% 0.00in /  0mm W/m2
14:39 64.5 °F /  18.1 °C 37.6 °F /  3.1 °C 30.51in /  1033.1hPa NNE 1.6mph /  2.6km/h 5mph /  8km/h 37% 0.00in /  0mm W/m2
14:44 64.8 °F /  18.2 °C 38.4 °F /  3.6 °C 30.51in /  1033.1hPa NNE 1.4mph /  2.3km/h 4mph /  6.4km/h 37.8% 0.00in /  0mm W/m2
14:49 64.9 °F /  18.3 °C 40.4 °F /  4.7 °C 30.51in /  1033.1hPa NE 1.6mph /  2.6km/h 4mph /  6.4km/h 40.7% 0.00in /  0mm W/m2
14:54 64.9 °F /  18.3 °C 38.6 °F /  3.7 °C 30.51in /  1033.1hPa ESE 1.4mph /  2.3km/h 4mph /  6.4km/h 37.8% 0.00in /  0mm W/m2
14:59 65.1 °F /  18.4 °C 40.6 °F /  4.8 °C 30.50in /  1032.7hPa SSE 1.4mph /  2.3km/h 4mph /  6.4km/h 40.8% 0.00in /  0mm W/m2
15:04 65.3 °F /  18.5 °C 39.9 °F /  4.4 °C 30.50in /  1032.7hPa SSE 1.5mph /  2.4km/h 3mph /  4.8km/h 39.5% 0.00in /  0mm W/m2
15:09 65.9 °F /  18.8 °C 39.8 °F /  4.3 °C 30.50in /  1032.7hPa SSE 1.3mph /  2.1km/h 3mph /  4.8km/h 38.4% 0.00in /  0mm W/m2
15:14 66.3 °F /  19.1 °C 39.6 °F /  4.2 °C 30.50in /  1032.7hPa SSE 0.9mph /  1.4km/h 3mph /  4.8km/h 37.7% 0.00in /  0mm W/m2
15:19 65.8 °F /  18.8 °C 39.8 °F /  4.3 °C 30.49in /  1032.4hPa SSE 0.8mph /  1.3km/h 3mph /  4.8km/h 38.6% 0.00in /  0mm W/m2
15:24 65.7 °F /  18.7 °C 39.3 °F /  4.1 °C 30.49in /  1032.4hPa SSE 0.7mph /  1.1km/h 3mph /  4.8km/h 38.1% 0.00in /  0mm W/m2
15:29 66.4 °F /  19.1 °C 41.6 °F /  5.3 °C 30.49in /  1032.4hPa SSE 0.5mph /  0.8km/h 3mph /  4.8km/h 40.4% 0.00in /  0mm W/m2
15:34 67.1 °F /  19.5 °C 41.9 °F /  5.5 °C 30.49in /  1032.4hPa SSE 0.7mph /  1.1km/h 3mph /  4.8km/h 40% 0.00in /  0mm W/m2
15:39 66.7 °F /  19.3 °C 41.6 °F /  5.3 °C 30.49in /  1032.4hPa SSE 1.1mph /  1.8km/h 3mph /  4.8km/h 40.1% 0.00in /  0mm W/m2
15:44 66 °F /  18.9 °C 42.2 °F /  5.7 °C 30.49in /  1032.4hPa SSE 1.2mph /  1.9km/h 3mph /  4.8km/h 41.9% 0.00in /  0mm W/m2
15:49 67.4 °F /  19.7 °C 41.8 °F /  5.4 °C 30.48in /  1032.1hPa SSE 1.1mph /  1.8km/h 3mph /  4.8km/h 39.4% 0.00in /  0mm W/m2
15:54 66.8 °F /  19.3 °C 40.5 °F /  4.7 °C 30.48in /  1032.1hPa SE 1.8mph /  2.9km/h 4mph /  6.4km/h 38.2% 0.00in /  0mm W/m2
15:59 67.4 °F /  19.7 °C 41.5 °F /  5.3 °C 30.48in /  1032.1hPa East 2.6mph /  4.2km/h 5mph /  8km/h 39% 0.00in /  0mm W/m2
16:04 67.4 °F /  19.7 °C 38.9 °F /  3.8 °C 30.47in /  1031.7hPa East 0.9mph /  1.4km/h 5mph /  8km/h 35.2% 0.00in /  0mm W/m2
16:09 67 °F /  19.4 °C 38.9 °F /  3.8 °C 30.47in /  1031.7hPa SE 1.3mph /  2.1km/h 5mph /  8km/h 35.7% 0.00in /  0mm W/m2
16:14 66.9 °F /  19.4 °C 38.5 °F /  3.6 °C 30.47in /  1031.7hPa South 1.6mph /  2.6km/h 4mph /  6.4km/h 35.2% 0.00in /  0mm W/m2
16:19 67.5 °F /  19.7 °C 39.8 °F /  4.3 °C 30.47in /  1031.7hPa South 1.1mph /  1.8km/h 4mph /  6.4km/h 36.3% 0.00in /  0mm W/m2
16:24 67.6 °F /  19.8 °C 42.6 °F /  5.9 °C 30.46in /  1031.4hPa South 1mph /  1.6km/h 4mph /  6.4km/h 40.4% 0.00in /  0mm W/m2
16:29 68.7 °F /  20.4 °C 44.6 °F /  7 °C 30.46in /  1031.4hPa ENE 2.8mph /  4.5km/h 5mph /  8km/h 41.9% 0.00in /  0mm W/m2
16:34 68 °F /  20 °C 45.5 °F /  7.5 °C 30.46in /  1031.4hPa ENE 3.6mph /  5.8km/h 7mph /  11.3km/h 44.5% 0.00in /  0mm W/m2
16:39 67.1 °F /  19.5 °C 45.5 °F /  7.5 °C 30.46in /  1031.4hPa NE 3.3mph /  5.3km/h 7mph /  11.3km/h 45.8% 0.00in /  0mm W/m2
16:44 66.1 °F /  18.9 °C 45 °F /  7.2 °C 30.46in /  1031.4hPa NE 3.9mph /  6.3km/h 7mph /  11.3km/h 46.5% 0.00in /  0mm W/m2
16:49 64.9 °F /  18.3 °C 44.5 °F /  6.9 °C 30.46in /  1031.4hPa NE 4.2mph /  6.8km/h 7mph /  11.3km/h 47.7% 0.00in /  0mm W/m2
16:54 64.5 °F /  18.1 °C 44.9 °F /  7.2 °C 30.46in /  1031.4hPa ENE 3.5mph /  5.6km/h 7mph /  11.3km/h 49% 0.00in /  0mm W/m2
16:59 64.2 °F /  17.9 °C 45 °F /  7.2 °C 30.46in /  1031.4hPa NNE 3.4mph /  5.5km/h 7mph /  11.3km/h 49.9% 0.00in /  0mm W/m2
17:04 63.8 °F /  17.7 °C 44.2 °F /  6.8 °C 30.46in /  1031.4hPa NNE 3.4mph /  5.5km/h 7mph /  11.3km/h 48.8% 0.00in /  0mm W/m2
17:09 63.4 °F /  17.4 °C 44.4 °F /  6.9 °C 30.46in /  1031.4hPa North 4.1mph /  6.6km/h 8mph /  12.9km/h 50% 0.00in /  0mm W/m2
17:14 63 °F /  17.2 °C 44.3 °F /  6.8 °C 30.46in /  1031.4hPa NE 3.9mph /  6.3km/h 8mph /  12.9km/h 50.5% 0.00in /  0mm W/m2
Lockport, New York, USA
Compliments of Weather Underground - 2.25 mb